createdAt,value
2019-03-27T00:02:46.714Z,44.03
2019-03-27T00:07:50.172Z,44.02
2019-03-27T00:12:53.639Z,44.03
2019-03-27T00:17:57.103Z,44.08
2019-03-27T00:23:00.559Z,44.14
2019-03-27T00:28:04.101Z,44.08
2019-03-27T00:33:07.563Z,44.18
2019-03-27T00:38:11.021Z,44.18
2019-03-27T00:43:14.489Z,44.14
2019-03-27T00:48:17.950Z,44.15
2019-03-27T00:53:21.413Z,44.15
2019-03-27T00:58:24.871Z,44.18
2019-03-27T01:03:28.332Z,44.19
2019-03-27T01:08:31.788Z,44.20
2019-03-27T01:13:35.243Z,44.27
2019-03-27T01:18:38.700Z,44.31
2019-03-27T01:23:42.166Z,44.34
2019-03-27T01:28:45.630Z,44.36
2019-03-27T01:33:49.096Z,44.48
2019-03-27T01:38:52.551Z,44.42
2019-03-27T01:43:56.008Z,44.48
2019-03-27T01:48:59.469Z,44.50
2019-03-27T01:54:03.104Z,44.55
2019-03-27T01:59:06.564Z,44.64
2019-03-27T02:04:10.024Z,44.71
2019-03-27T02:09:13.485Z,44.78
2019-03-27T02:14:16.944Z,44.85
2019-03-27T02:19:20.403Z,44.89
2019-03-27T02:24:23.864Z,44.87
2019-03-27T02:29:27.329Z,44.96
2019-03-27T02:34:30.793Z,44.93
2019-03-27T02:39:34.277Z,44.90
2019-03-27T02:44:37.735Z,45.09
2019-03-27T02:49:41.204Z,45.10
2019-03-27T02:54:44.675Z,45.09
2019-03-27T02:59:48.145Z,45.09
2019-03-27T03:04:51.676Z,45.17
2019-03-27T03:09:55.138Z,45.16
2019-03-27T03:14:58.599Z,45.14
2019-03-27T03:20:02.060Z,45.26
2019-03-27T03:25:06.205Z,45.17
2019-03-27T03:30:12.231Z,45.21
2019-03-27T03:35:15.798Z,45.23
2019-03-27T03:40:19.323Z,45.28
2019-03-27T03:45:22.800Z,45.33
2019-03-27T03:50:35.395Z,45.27
2019-03-27T03:55:39.888Z,45.28
2019-03-27T04:00:43.430Z,45.35
2019-03-27T04:05:46.931Z,45.37
2019-03-27T04:10:50.354Z,45.37
2019-03-27T04:15:53.821Z,45.34
2019-03-27T04:20:57.281Z,45.40
2019-03-27T04:26:09.732Z,45.45
2019-03-27T04:31:06.094Z,45.39
2019-03-27T04:36:09.559Z,45.36
2019-03-27T04:41:13.023Z,45.41
2019-03-27T04:46:16.480Z,45.30
2019-03-27T04:51:19.944Z,45.44
2019-03-27T04:56:23.408Z,45.38
2019-03-27T05:01:26.873Z,45.45
2019-03-27T05:06:30.344Z,45.59
2019-03-27T05:11:33.801Z,45.66
2019-03-27T05:16:37.260Z,45.55
2019-03-27T05:21:40.729Z,45.53
2019-03-27T05:26:44.192Z,45.57
2019-03-27T05:31:47.649Z,45.55
2019-03-27T05:36:51.107Z,45.52
2019-03-27T05:41:54.574Z,45.57
2019-03-27T05:46:58.025Z,45.59
2019-03-27T05:52:01.479Z,45.55
2019-03-27T05:57:05.025Z,45.59
2019-03-27T06:02:08.485Z,45.53
2019-03-27T06:07:11.944Z,45.51
2019-03-27T06:12:15.408Z,45.54
2019-03-27T06:17:18.864Z,45.50
2019-03-27T06:22:22.329Z,45.51
2019-03-27T06:27:25.790Z,45.51
2019-03-27T06:32:29.248Z,45.50
2019-03-27T06:37:32.709Z,45.46
2019-03-27T06:42:36.172Z,45.45
2019-03-27T06:47:39.632Z,45.49
2019-03-27T06:52:43.083Z,45.44
2019-03-27T06:57:46.544Z,45.44
2019-03-27T07:02:50.006Z,45.42
2019-03-27T07:07:53.464Z,45.42
2019-03-27T07:12:56.920Z,45.38
2019-03-27T07:18:00.382Z,45.36
2019-03-27T07:23:03.849Z,45.33
2019-03-27T07:28:07.310Z,45.30
2019-03-27T07:33:10.776Z,45.24
2019-03-27T07:38:14.237Z,45.29
2019-03-27T07:43:17.696Z,45.26
2019-03-27T07:48:21.157Z,45.28
2019-03-27T07:53:24.618Z,45.25
2019-03-27T07:58:28.077Z,45.23
2019-03-27T08:03:31.536Z,45.22
2019-03-27T08:08:34.997Z,45.13
2019-03-27T08:13:38.458Z,45.21
2019-03-27T08:18:41.915Z,45.15
2019-03-27T08:23:45.376Z,45.14
2019-03-27T08:28:48.831Z,45.11
2019-03-27T08:33:52.303Z,45.15
2019-03-27T08:38:55.770Z,35.79
2019-03-27T08:43:59.271Z,34.97
2019-03-27T08:49:02.696Z,35.53
2019-03-27T08:54:06.155Z,35.70
2019-03-27T08:59:09.616Z,36.69
2019-03-27T09:04:13.079Z,37.50
2019-03-27T09:09:16.540Z,37.98
2019-03-27T09:14:19.999Z,38.34
2019-03-27T09:19:34.860Z,38.67
2019-03-27T09:24:28.641Z,38.91
2019-03-27T09:29:32.105Z,39.12
2019-03-27T09:34:35.585Z,39.27
2019-03-27T09:39:39.068Z,39.40
2019-03-27T09:44:42.523Z,39.62
2019-03-27T09:49:49.754Z,39.77
2019-03-27T09:54:51.209Z,40.27
2019-03-27T09:59:54.684Z,40.41
2019-03-27T10:04:58.161Z,40.84
2019-03-27T10:10:01.643Z,41.28
2019-03-27T10:15:07.883Z,41.16
2019-03-27T10:20:13.672Z,41.14
2019-03-27T10:25:17.093Z,38.94
2019-03-27T10:30:20.557Z,36.98
2019-03-27T10:35:24.013Z,37.19
2019-03-27T10:40:27.496Z,38.19
2019-03-27T10:45:31.128Z,38.66
2019-03-27T10:50:34.583Z,38.83
2019-03-27T10:55:38.042Z,38.58
2019-03-27T11:00:41.496Z,39.04
2019-03-27T11:05:44.958Z,39.33
2019-03-27T11:10:48.421Z,39.44
2019-03-27T11:15:51.881Z,39.93
2019-03-27T11:20:55.348Z,40.15
2019-03-27T11:25:58.805Z,40.28
2019-03-27T11:31:02.263Z,40.38
2019-03-27T11:36:05.721Z,40.40
2019-03-27T11:41:12.068Z,33.63
2019-03-27T11:46:14.358Z,33.54
2019-03-27T11:51:17.820Z,33.10
2019-03-27T11:56:21.296Z,33.88
2019-03-27T12:01:24.781Z,35.32
2019-03-27T12:06:28.252Z,36.76
2019-03-27T12:11:31.726Z,37.53
2019-03-27T12:16:35.207Z,38.23
2019-03-27T12:21:38.681Z,38.50
2019-03-27T12:26:42.155Z,38.49
2019-03-27T12:31:45.629Z,38.45
2019-03-27T12:36:49.103Z,38.48
2019-03-27T12:41:52.575Z,38.55
2019-03-27T12:46:56.054Z,38.98
2019-03-27T12:51:59.527Z,39.50
2019-03-27T12:57:03.012Z,39.79
2019-03-27T13:02:07.419Z,40.26
2019-03-27T13:07:10.895Z,40.70
2019-03-27T13:12:14.369Z,41.00
2019-03-27T13:17:17.849Z,40.95
2019-03-27T13:22:21.326Z,40.83
2019-03-27T13:27:24.800Z,40.76
2019-03-27T13:32:28.273Z,40.72
2019-03-27T13:37:32.640Z,40.56
2019-03-27T13:42:36.097Z,40.82
2019-03-27T13:47:39.564Z,41.12
2019-03-27T13:52:43.168Z,41.31
2019-03-27T13:57:46.622Z,41.53
2019-03-27T14:02:50.085Z,41.76
2019-03-27T14:07:53.544Z,41.82
2019-03-27T14:12:57.006Z,41.90
2019-03-27T14:18:00.469Z,42.00
2019-03-27T14:23:04.000Z,41.52
2019-03-27T14:28:07.461Z,40.47
2019-03-27T14:33:10.911Z,40.20
2019-03-27T14:38:14.372Z,39.97
2019-03-27T14:43:17.902Z,39.73
2019-03-27T14:48:21.356Z,39.81
2019-03-27T14:53:24.817Z,39.73
2019-03-27T14:58:28.276Z,39.65
2019-03-27T15:03:31.742Z,39.77
2019-03-27T15:08:35.200Z,39.61
2019-03-27T15:13:38.668Z,39.86
2019-03-27T15:18:42.131Z,39.86
2019-03-27T15:23:45.594Z,39.38
2019-03-27T15:28:50.763Z,40.26
2019-03-27T15:33:54.237Z,40.52
2019-03-27T15:38:57.697Z,40.67
2019-03-27T15:44:01.151Z,40.76
2019-03-27T15:49:04.676Z,40.77
2019-03-27T15:54:08.143Z,40.83
2019-03-27T15:59:11.604Z,40.76
2019-03-27T16:04:15.062Z,40.79
2019-03-27T16:09:19.388Z,40.31
2019-03-27T16:14:22.850Z,39.63
2019-03-27T16:19:26.306Z,39.57
2019-03-27T16:24:29.771Z,39.36
2019-03-27T16:29:33.227Z,39.14
2019-03-27T16:34:36.684Z,39.15
2019-03-27T16:39:40.144Z,38.99
2019-03-27T16:44:43.601Z,39.09
2019-03-27T16:49:47.133Z,38.97
2019-03-27T16:54:50.599Z,38.97
2019-03-27T16:59:54.049Z,38.86
2019-03-27T17:04:57.512Z,38.80
2019-03-27T17:10:00.977Z,38.68
2019-03-27T17:15:06.254Z,38.69
2019-03-27T17:20:11.452Z,38.65
2019-03-27T17:25:14.910Z,38.68
2019-03-27T17:30:18.972Z,39.31
2019-03-27T17:35:22.513Z,39.27
2019-03-27T17:40:25.975Z,38.72
2019-03-27T17:45:29.455Z,38.70
2019-03-27T17:50:32.898Z,38.97
2019-03-27T17:55:36.351Z,39.24
2019-03-27T18:00:48.662Z,39.45
2019-03-27T18:05:52.111Z,39.58
2019-03-27T18:10:55.567Z,39.77
2019-03-27T18:15:59.026Z,39.88
2019-03-27T18:21:02.655Z,40.02
2019-03-27T18:26:06.113Z,40.09
2019-03-27T18:31:09.572Z,40.31
2019-03-27T18:36:13.034Z,40.35
2019-03-27T18:41:16.492Z,40.49
2019-03-27T18:46:19.957Z,40.91
2019-03-27T18:51:23.411Z,40.97
2019-03-27T18:56:26.950Z,40.97
2019-03-27T19:01:30.414Z,40.94
2019-03-27T19:06:33.873Z,40.96
2019-03-27T19:11:37.404Z,41.05
2019-03-27T19:16:40.873Z,41.14
2019-03-27T19:21:44.325Z,41.14
2019-03-27T19:26:47.790Z,41.20
2019-03-27T19:31:51.257Z,41.16
2019-03-27T19:36:54.716Z,41.13
2019-03-27T19:41:58.177Z,40.99
2019-03-27T19:47:01.639Z,40.87
2019-03-27T19:52:05.177Z,40.75
2019-03-27T19:57:08.636Z,40.67
2019-03-27T20:02:12.334Z,40.61
2019-03-27T20:07:15.792Z,40.56
2019-03-27T20:12:19.248Z,40.52
2019-03-27T20:17:22.704Z,40.50
2019-03-27T20:22:26.160Z,40.47
2019-03-27T20:27:29.616Z,40.46
2019-03-27T20:32:33.079Z,40.42
2019-03-27T20:37:36.538Z,40.45
2019-03-27T20:42:39.992Z,40.44
2019-03-27T20:47:43.448Z,40.41
2019-03-27T20:52:46.903Z,40.42
2019-03-27T20:57:50.360Z,40.42
2019-03-27T21:02:53.819Z,40.41
2019-03-27T21:07:57.281Z,40.43
2019-03-27T21:13:00.738Z,40.48
2019-03-27T21:18:04.277Z,40.56
2019-03-27T21:23:07.737Z,40.59
2019-03-27T21:28:11.196Z,40.66
2019-03-27T21:33:14.658Z,40.71
2019-03-27T21:38:18.120Z,40.72
2019-03-27T21:43:21.582Z,40.80
2019-03-27T21:48:25.104Z,40.84
2019-03-27T21:53:28.565Z,40.82
2019-03-27T21:58:32.028Z,40.82
2019-03-27T22:03:35.494Z,40.88
2019-03-27T22:08:38.948Z,40.97
2019-03-27T22:13:42.418Z,41.08
2019-03-27T22:18:45.878Z,41.13
2019-03-27T22:23:49.340Z,41.15
2019-03-27T22:28:52.802Z,41.21
2019-03-27T22:33:56.263Z,41.23
2019-03-27T22:38:59.727Z,41.45
2019-03-27T22:44:03.184Z,41.68
2019-03-27T22:49:06.644Z,41.95
2019-03-27T22:54:10.104Z,42.12
2019-03-27T22:59:13.565Z,42.22
2019-03-27T23:04:17.291Z,42.26
2019-03-27T23:09:20.754Z,42.34
2019-03-27T23:14:24.217Z,42.38
2019-03-27T23:19:27.677Z,42.48
2019-03-27T23:24:31.136Z,42.56
2019-03-27T23:29:34.617Z,42.57
2019-03-27T23:34:38.060Z,42.59
2019-03-27T23:39:41.521Z,42.71
2019-03-27T23:44:44.981Z,42.68
2019-03-27T23:49:48.446Z,42.77
2019-03-27T23:54:51.903Z,42.82
2019-03-27T23:59:55.360Z,42.80
